Data for 10/22/2016

Time Sea-Level Adjusted Pressure Absolute Pressure Temperature Relative Humidity Dew Point   
(mb) (inHg) (mb) (inHg) (C) (F) (%) (C) (F)
00:05 1014 29.94 843 24.89 10.2 50.4 36 -4.2 24.4
00:10 1014 29.94 843 24.89 10.1 50.2 37 -4 24.7
00:15 1014 29.94 843 24.89 10 50 36 -4.3 24.3
00:20 1014 29.94 843 24.89 10.1 50.2 36 -4.2 24.4
00:25 1014 29.94 843 24.89 10.1 50.1 36 -4.3 24.2
00:30 1014 29.94 843 24.89 10 50 36 -4.2 24.4
00:35 1014 29.94 843 24.89 9.8 49.7 37 -4.1 24.7
00:40 1014 29.94 843 24.89 9.9 49.9 35 -4.8 23.3
00:45 1014 29.94 843 24.89 10 50.1 35 -4.5 23.8
00:50 1014 29.94 843 24.89 9.8 49.6 36 -4.4 24.1
00:55 1014 29.94 843 24.89 9.6 49.3 36 -4.6 23.8
01:00 1014 29.94 843 24.89 9.7 49.4 35 -4.9 23.1
01:05 1014 29.94 843 24.89 9.7 49.4 36 -4.8 23.3
01:10 1014 29.94 843 24.89 9.6 49.2 36 -4.7 23.6
01:15 1014 29.94 843 24.89 9.4 49 37 -4.5 23.9
01:20 1014 29.94 843 24.89 9.3 48.8 37 -4.5 24
01:25 1014 29.94 843 24.89 9.2 48.6 38 -4.5 23.9
01:30 1014 29.94 843 24.89 9.1 48.4 38 -4.5 24
01:35 1014 29.94 843 24.89 9.1 48.3 38 -4.5 23.9
01:40 1014 29.94 843 24.89 9.1 48.4 37 -4.7 23.6
01:45 1014 29.94 843 24.89 9.1 48.5 38 -4.5 24
01:50 1013 29.91 843 24.89 9.1 48.4 37 -4.7 23.6
01:55 1013 29.91 843 24.89 9.2 48.6 36 -4.9 23.2
02:00 1013 29.91 843 24.89 9.3 48.7 38 -4.3 24.2
02:05 1013 29.91 842 24.86 9.1 48.3 38 -4.4 24.1
02:10 1013 29.91 842 24.86 8.9 48.1 38 -4.7 23.5
02:15 1013 29.91 842 24.86 9 48.3 38 -4.5 23.8
02:20 1013 29.91 842 24.86 9 48.1 38 -4.5 23.9
02:25 1013 29.91 842 24.86 9 48.1 38 -4.7 23.5
02:30 1013 29.91 842 24.86 9.1 48.4 37 -4.8 23.4
02:35 1013 29.91 842 24.86 9.2 48.5 37 -4.8 23.4
02:40 1013 29.91 842 24.86 9.2 48.6 36 -4.9 23.2
02:45 1013 29.91 842 24.86 9.2 48.6 37 -4.8 23.3
02:50 1013 29.91 842 24.86 9.1 48.3 38 -4.4 24
02:55 1013 29.91 842 24.86 8.9 48.1 38 -4.7 23.5
03:00 1013 29.91 842 24.86 9.1 48.3 37 -5 23
03:05 1013 29.91 842 24.86 9.3 48.7 36 -5.1 22.9
03:10 1013 29.91 842 24.86 9.6 49.2 35 -5.3 22.5
03:15 1013 29.91 842 24.86 9.5 49.2 35 -5 23.1
03:20 1013 29.91 842 24.86 9.3 48.7 37 -4.5 23.9
03:25 1013 29.91 842 24.86 9.1 48.4 39 -4.1 24.6
03:30 1013 29.91 842 24.86 8.8 47.9 40 -3.9 25
03:35 1013 29.91 842 24.86 8.8 47.9 39 -4.4 24.2
03:40 1013 29.91 842 24.86 9 48.1 39 -4.3 24.3
03:45 1013 29.91 842 24.86 9 48.2 38 -4.6 23.7
03:50 1013 29.91 842 24.86 9.2 48.5 37 -4.6 23.7
03:55 1013 29.91 842 24.86 9.2 48.6 37 -4.7 23.5
04:00 1013 29.91 842 24.86 9.3 48.8 36 -5 23.1
04:05 1013 29.91 842 24.86 9.5 49.1 36 -5 23
04:10 1013 29.91 842 24.86 9.6 49.2 36 -4.7 23.5
04:15 1013 29.91 842 24.86 9.6 49.2 38 -4 24.8
04:20 1013 29.91 842 24.86 9.3 48.8 39 -4 24.8
04:25 1013 29.91 842 24.86 9.1 48.4 40 -3.9 25.1
04:30 1013 29.91 842 24.86 8.9 48 41 -3.7 25.3
04:35 1013 29.91 842 24.86 8.6 47.6 43 -3.2 26.2
04:40 1013 29.91 842 24.86 8.4 47.1 44 -3 26.6
04:45 1013 29.91 842 24.86 8 46.4 46 -2.8 27
04:50 1013 29.91 843 24.89 7.8 46.1 48 -2.5 27.6
04:55 1013 29.91 843 24.89 7.6 45.7 50 -2.2 28.1
05:00 1013 29.91 842 24.86 7.5 45.5 50 -2.3 27.9
05:05 1013 29.91 843 24.89 7.6 45.7 49 -2.3 27.9
05:10 1014 29.94 843 24.89 7.7 45.8 50 -2.1 28.1
05:15 1013 29.91 842 24.86 7.6 45.6 50 -2.1 28.3
05:20 1013 29.91 843 24.89 7.6 45.6 49 -2.4 27.6
05:25 1014 29.94 843 24.89 7.9 46.2 47 -2.8 27
05:30 1014 29.94 843 24.89 8.2 46.7 45 -3 26.6
05:35 1013 29.91 843 24.89 8.5 47.4 44 -3 26.7
05:40 1013 29.91 843 24.89 8.6 47.5 44 -3.1 26.5
05:45 1014 29.94 843 24.89 8.7 47.6 44 -3 26.6
05:50 1014 29.94 843 24.89 8.6 47.6 44 -3 26.6
05:55 1013 29.91 843 24.89 8.8 47.8 43 -3.2 26.2
06:00 1013 29.91 843 24.89 8.9 48 43 -3.1 26.5
06:05 1013 29.91 843 24.89 8.9 48 43 -2.9 26.8
06:10 1013 29.91 843 24.89 8.6 47.6 44 -2.9 26.7
06:15 1013 29.91 842 24.86 8.6 47.4 44 -3 26.6
06:20 1013 29.91 843 24.89 8.6 47.4 43 -3.3 26
06:25 1013 29.91 843 24.89 8.7 47.6 44 -2.8 27
06:30 1013 29.91 843 24.89 8.5 47.4 44 -3.1 26.4
06:35 1013 29.91 843 24.89 8.5 47.3 43 -3.2 26.3
06:40 1013 29.91 843 24.89 8.2 46.7 46 -2.8 27
06:45 1013 29.91 843 24.89 7.7 45.9 47 -2.9 26.7
06:50 1013 29.91 843 24.89 7.7 45.8 47 -3 26.6
06:55 1014 29.94 843 24.89 7.7 45.8 47 -3 26.7
07:00 1014 29.94 843 24.89 7.6 45.7 48 -2.7 27.2
07:05 1014 29.94 843 24.89 7 44.6 52 -2.3 27.9
07:10 1014 29.94 843 24.89 6.5 43.7 53 -2.5 27.5
07:15 1014 29.94 843 24.89 6.5 43.7 51 -3 26.7
07:20 1014 29.94 843 24.89 6.7 44.1 49 -3.1 26.4
07:25 1014 29.94 843 24.89 7.2 45 47 -3.3 26.1
07:30 1014 29.94 843 24.89 7.4 45.4 48 -2.9 26.9
07:35 1014 29.94 843 24.89 7.5 45.4 48 -2.8 27
07:40 1014 29.94 843 24.89 7.5 45.5 48 -2.6 27.3
07:45 1014 29.94 843 24.89 7.6 45.6 47 -3 26.6
07:50 1014 29.94 844 24.92 7.6 45.6 50 -2.2 28.1
07:55 1015 29.97 844 24.92 7.8 46 49 -2.3 27.9
08:00 1015 29.97 844 24.92 7.9 46.3 50 -1.9 28.6
08:05 1015 29.97 845 24.95 7.9 46.2 52 -1.4 29.5
08:10 1016 30 845 24.95 7.3 45.1 54 -1.3 29.6
08:15 1016 30 845 24.95 7 44.7 55 -1.5 29.4
08:20 1016 30 845 24.95 7.1 44.8 55 -1.4 29.5
08:25 1016 30 845 24.95 7.2 45 55 -1.2 29.9
08:30 1016 30 845 24.95 7.3 45.1 56 -1 30.2
08:35 1016 30 846 24.98 7.4 45.2 57 -0.7 30.7
08:40 1017 30.03 846 24.98 7.3 45.2 58 -0.4 31.4
08:45 1017 30.03 846 24.98 7.3 45.1 58 -0.3 31.4
08:50 1017 30.03 846 24.98 7.1 44.7 61 0 32
08:55 1017 30.03 846 24.98 6.8 44.3 63 0.3 32.5
09:00 1017 30.03 846 24.98 6.8 44.2 62 0.1 32.2
09:05 1017 30.03 846 24.98 6.9 44.4 62 0.2 32.3
09:10 1017 30.03 846 24.98 7.2 44.9 62 0.3 32.6
09:15 1017 30.03 847 25.01 7.5 45.6 61 0.5 32.8
09:20 1018 30.06 847 25.01 7.8 46 61 0.8 33.4
09:25 1018 30.06 847 25.01 8.5 47.4 57 0.4 32.8
09:30 1018 30.06 847 25.01 9 48.3 57 1 33.8
09:35 1018 30.06 847 25.01 8.4 47.2 58 0.6 33
09:40 1018 30.06 847 25.01 8.6 47.4 56 0.3 32.5
09:45 1018 30.06 847 25.01 9.1 48.4 54 0.3 32.5
09:50 1018 30.06 847 25.01 9.5 49 53 0.3 32.5
09:55 1018 30.06 847 25.01 10.3 50.6 49 0.1 32.2
10:00 1018 30.06 847 25.01 10.3 50.6 50 0.3 32.6
10:05 1018 30.06 847 25.01 10.3 50.5 49 -0 32
10:10 1018 30.06 847 25.01 10.8 51.4 49 0.7 33.2
10:15 1018 30.06 847 25.01 10.4 50.7 51 0.8 33.5
10:20 1018 30.06 847 25.01 10 50 51 0.5 32.9
10:25 1018 30.06 847 25.01 10.2 50.3 52 0.8 33.5
10:30 1018 30.06 847 25.01 10.5 50.9 52 1.2 34.1
10:35 1018 30.06 847 25.01 11.2 52.1 47 0.3 32.5
10:40 1018 30.06 847 25.01 12.1 53.8 45 0.6 33
10:45 1018 30.06 847 25.01 11.9 53.5 46 0.7 33.2
10:50 1018 30.06 847 25.01 11.9 53.4 45 0.4 32.8
10:55 1018 30.06 847 25.01 11.9 53.3 45 0.3 32.6
11:00 1018 30.06 847 25.01 12.2 54 43 0.2 32.3
11:05 1018 30.06 847 25.01 11.9 53.4 45 0.3 32.5
11:10 1018 30.06 847 25.01 12.1 53.8 42 -0.3 31.4
11:15 1018 30.06 847 25.01 12.1 53.7 42 -0.3 31.5
11:20 1018 30.06 847 25.01 12.5 54.6 41 -0.4 31.4
11:25 1018 30.06 847 25.01 12 53.7 39 -1.5 29.4
11:30 1018 30.06 847 25.01 12.1 53.8 37 -2 28.4
11:35 1018 30.06 847 25.01 12.2 53.9 37 -2.1 28.3
11:40 1018 30.06 847 25.01 12.4 54.4 37 -1.7 29
11:45 1018 30.06 847 25.01 12.2 54 39 -1.1 30
11:50 1018 30.06 847 25.01 12 53.7 41 -0.7 30.7
11:55 1018 30.06 847 25.01 12 53.5 41 -0.9 30.5
12:00 1018 30.06 847 25.01 12 53.6 41 -0.9 30.4
12:05 1018 30.06 847 25.01 12 53.6 40 -1 30.1
12:10 1018 30.06 847 25.01 11.8 53.3 39 -1.5 29.4
12:15 1018 30.06 847 25.01 12.2 53.9 39 -1.2 29.9
12:20 1018 30.06 847 25.01 12.4 54.2 40 -1 30.3
12:25 1018 30.06 847 25.01 12.7 54.9 37 -1.4 29.5
12:30 1018 30.06 847 25.01 12.5 54.6 40 -0.7 30.7
12:35 1018 30.06 847 25.01 12.7 54.9 37 -1.5 29.2
12:40 1018 30.06 847 25.01 12.6 54.7 38 -1.1 30
12:45 1018 30.06 847 25.01 13.1 55.5 37 -1.3 29.7
12:50 1018 30.06 847 25.01 13.3 55.9 37 -1 30.2
12:55 1018 30.06 847 25.01 13.7 56.7 37 -0.7 30.8
13:00 1018 30.06 847 25.01 13.3 56 37 -0.8 30.5
13:05 1018 30.06 847 25.01 13 55.3 38 -1.1 30
13:10 1018 30.06 847 25.01 13.1 55.5 38 -0.9 30.3
13:15 1018 30.06 847 25.01 13.1 55.7 37 -1 30.2
13:20 1018 30.06 847 25.01 13.3 56 38 -0.8 30.6
13:25 1018 30.06 847 25.01 12.6 54.7 37 -1.7 28.9
13:30 1018 30.06 847 25.01 13.4 56.1 35 -1.7 29
13:35 1018 30.06 847 25.01 12.9 55.2 37 -1.3 29.7
13:40 1018 30.06 847 25.01 13.1 55.5 36 -1.4 29.4
13:45 1018 30.06 847 25.01 12.5 54.5 37 -1.6 29
13:50 1018 30.06 847 25.01 12.7 54.8 38 -1.2 29.8
13:55 1018 30.06 847 25.01 13.1 55.6 36 -1.7 29
14:00 1017 30.03 847 25.01 13.7 56.6 34 -1.9 28.6
14:05 1017 30.03 847 25.01 13.6 56.5 34 -1.8 28.8
14:10 1017 30.03 847 25.01 14 57.1 35 -1.2 29.8
14:15 1017 30.03 847 25.01 13.8 56.9 34 -1.7 28.9
14:20 1018 30.06 847 25.01 14 57.2 35 -1.2 29.9
14:25 1017 30.03 847 25.01 13.9 57.1 35 -1.3 29.7
14:30 1017 30.03 847 25.01 13.9 57 35 -1.4 29.4
14:35 1018 30.06 847 25.01 14.2 57.6 33 -1.6 29.1
14:40 1018 30.06 847 25.01 13.5 56.4 37 -0.8 30.6
14:45 1018 30.06 847 25.01 12.7 54.9 36 -1.7 28.9
14:50 1018 30.06 847 25.01 12.9 55.2 37 -1.4 29.5
14:55 1017 30.03 847 25.01 12.7 54.9 37 -1.5 29.3
15:00 1017 30.03 847 25.01 13.2 55.8 35 -1.8 28.7
15:05 1017 30.03 847 25.01 13.4 56.2 35 -1.6 29.1
15:10 1017 30.03 847 25.01 13.5 56.3 36 -1.3 29.7
15:15 1017 30.03 847 25.01 13.2 55.7 36 -1.5 29.3
15:20 1017 30.03 847 25.01 13.6 56.4 35 -1.6 29.1
15:25 1017 30.03 847 25.01 12.9 55.3 37 -1.4 29.4
15:30 1017 30.03 847 25.01 12.4 54.3 37 -2 28.5
15:35 1017 30.03 847 25.01 13 55.3 35 -2.1 28.2
15:40 1017 30.03 847 25.01 12.9 55.1 35 -2.1 28.2
15:45 1017 30.03 847 25.01 12.9 55.3 35 -1.9 28.5
15:50 1017 30.03 847 25.01 13 55.3 35 -1.9 28.6
15:55 1017 30.03 847 25.01 13 55.5 36 -1.6 29.1
16:00 1017 30.03 847 25.01 13.1 55.6 36 -1.7 29
16:05 1017 30.03 847 25.01 13.3 55.9 36 -1.5 29.2
16:10 1017 30.03 847 25.01 13.2 55.7 35 -1.8 28.7
16:15 1017 30.03 847 25.01 12.6 54.6 37 -1.5 29.3
16:20 1017 30.03 847 25.01 12.5 54.5 37 -1.7 28.9
16:25 1017 30.03 847 25.01 12.2 54 38 -1.7 29
16:30 1017 30.03 847 25.01 12.2 53.9 38 -1.5 29.2
16:35 1017 30.03 846 24.98 12.3 54.1 38 -1.7 29
16:40 1017 30.03 846 24.98 12.3 54.1 37 -1.8 28.8
16:45 1017 30.03 847 25.01 12.5 54.5 37 -1.9 28.6
16:50 1017 30.03 847 25.01 12.4 54.2 37 -2 28.4
16:55 1017 30.03 847 25.01 12.6 54.6 36 -2.1 28.3
17:00 1017 30.03 847 25.01 12.5 54.5 35 -2.3 27.8
17:05 1017 30.03 847 25.01 12.4 54.3 36 -2.2 28
17:10 1017 30.03 847 25.01 12.2 54 37 -2 28.4
17:15 1017 30.03 847 25.01 12.1 53.7 38 -1.7 28.9
17:20 1018 30.06 847 25.01 11.9 53.4 38 -1.8 28.7
17:25 1018 30.06 847 25.01 11.7 53.1 39 -1.6 29.1
17:30 1018 30.06 847 25.01 11.6 52.8 40 -1.6 29.2
17:35 1018 30.06 847 25.01 11.4 52.5 40 -1.6 29.1
17:40 1018 30.06 847 25.01 11.3 52.3 41 -1.6 29.2
17:45 1018 30.06 847 25.01 11.1 51.9 43 -1 30.2
17:50 1018 30.06 847 25.01 10.7 51.2 46 -0.5 31.1
17:55 1018 30.06 847 25.01 10.2 50.4 47 -0.6 30.9
18:00 1018 30.06 847 25.01 10 49.9 52 0.6 33
18:05 1018 30.06 847 25.01 9.4 48.8 55 0.8 33.4
18:10 1018 30.06 847 25.01 8.8 47.8 57 0.7 33.3
18:15 1018 30.06 847 25.01 8.5 47.4 58 0.7 33.3
18:20 1018 30.06 847 25.01 8.4 47.2 59 0.8 33.5
18:25 1018 30.06 847 25.01 8.1 46.6 60 0.8 33.4
18:30 1018 30.06 847 25.01 8 46.3 60 0.8 33.4
18:35 1018 30.06 847 25.01 7.6 45.7 62 0.7 33.3
18:40 1018 30.06 847 25.01 7.4 45.4 62 0.7 33.3
18:45 1018 30.06 847 25.01 6.9 44.5 63 0.5 32.8
18:50 1018 30.06 847 25.01 6.7 44.1 63 0.3 32.5
18:55 1018 30.06 847 25.01 6.7 44 62 -0.1 31.9
19:00 1018 30.06 847 25.01 6.9 44.4 62 0.1 32.2
19:05 1018 30.06 847 25.01 6.6 44 62 -0.1 31.9
19:10 1018 30.06 847 25.01 6.8 44.2 61 -0.1 31.7
19:15 1018 30.06 847 25.01 6.7 44 61 -0.3 31.5
19:20 1018 30.06 847 25.01 6.8 44.2 61 -0.1 31.8
19:25 1018 30.06 847 25.01 6.6 43.8 62 -0.1 31.8
19:30 1018 30.06 847 25.01 6.5 43.7 62 -0.1 31.7
19:35 1018 30.06 847 25.01 6.5 43.8 61 -0.3 31.4
19:40 1018 30.06 847 25.01 6.6 43.8 61 -0.3 31.5
19:45 1018 30.06 847 25.01 6.5 43.7 62 -0.3 31.5
19:50 1018 30.06 847 25.01 6.5 43.7 62 -0.3 31.5
19:55 1018 30.06 847 25.01 6.3 43.3 63 -0.3 31.5
20:00 1018 30.06 847 25.01 6.2 43.2 63 -0.3 31.5
20:05 1018 30.06 847 25.01 6 42.9 63 -0.5 31.2
20:10 1018 30.06 847 25.01 5.9 42.6 64 -0.4 31.2
20:15 1018 30.06 847 25.01 5.9 42.6 63 -0.6 31
20:20 1018 30.06 847 25.01 5.9 42.7 64 -0.4 31.2
20:25 1018 30.06 847 25.01 5.9 42.6 62 -0.7 30.7
20:30 1018 30.06 847 25.01 6 42.9 63 -0.5 31.1
20:35 1018 30.06 847 25.01 5.9 42.6 63 -0.5 31.1
20:40 1018 30.06 847 25.01 6 42.8 63 -0.4 31.3
20:45 1018 30.06 847 25.01 6 42.7 62 -0.7 30.8
20:50 1018 30.06 847 25.01 6 42.9 62 -0.7 30.8
20:55 1018 30.06 847 25.01 6.1 43 61 -0.8 30.5
21:00 1018 30.06 848 25.04 6.3 43.3 61 -0.8 30.6
21:05 1018 30.06 848 25.04 6.2 43.2 61 -0.8 30.6
21:10 1018 30.06 848 25.04 6.2 43.1 60 -1 30.1
21:15 1019 30.09 848 25.04 6.4 43.5 59 -0.9 30.3
21:20 1019 30.09 848 25.04 6.5 43.7 61 -0.4 31.2
21:25 1019 30.09 848 25.04 6.4 43.4 63 -0.2 31.6
21:30 1019 30.09 848 25.04 6.3 43.3 63 -0.1 31.7
21:35 1019 30.09 848 25.04 5.8 42.4 65 -0.2 31.7
21:40 1019 30.09 848 25.04 6 42.8 65 -0.1 31.9
21:45 1019 30.09 848 25.04 5.8 42.4 64 -0.5 31.1
21:50 1019 30.09 848 25.04 6.1 42.9 64 -0.2 31.7
21:55 1019 30.09 848 25.04 5.3 41.6 68 -0.1 31.9
22:00 1019 30.09 848 25.04 4.8 40.7 70 -0.2 31.7
22:05 1019 30.09 848 25.04 4.7 40.4 70 -0.3 31.5
22:10 1019 30.09 848 25.04 4.6 40.2 71 -0.3 31.5
22:15 1019 30.09 848 25.04 4.6 40.4 70 -0.3 31.4
22:20 1019 30.09 848 25.04 4.6 40.4 70 -0.4 31.3
22:25 1019 30.09 848 25.04 4.7 40.5 69 -0.4 31.2
22:30 1019 30.09 848 25.04 4.9 40.8 68 -0.5 31.2
22:35 1019 30.09 848 25.04 5 40.9 69 -0.3 31.4
22:40 1019 30.09 848 25.04 4.7 40.5 70 -0.3 31.4
22:45 1019 30.09 848 25.04 4.8 40.6 69 -0.5 31.1
22:50 1019 30.09 848 25.04 4.7 40.4 71 -0.2 31.7
22:55 1019 30.09 848 25.04 4.7 40.4 70 -0.3 31.5
23:00 1019 30.09 848 25.04 4.7 40.5 70 -0.3 31.4
23:05 1019 30.09 848 25.04 4.5 40.1 71 -0.4 31.3
23:10 1019 30.09 848 25.04 4.3 39.7 71 -0.4 31.2
23:15 1019 30.09 848 25.04 4.1 39.3 72 -0.5 31.2
23:20 1019 30.09 848 25.04 4.1 39.4 71 -0.7 30.7
23:25 1019 30.09 848 25.04 4.4 39.9 69 -0.8 30.5
23:30 1019 30.09 848 25.04 4.7 40.4 68 -0.7 30.8
23:35 1019 30.09 848 25.04 4.7 40.5 68 -0.7 30.8
23:40 1019 30.09 848 25.04 4.8 40.6 67 -0.8 30.5
23:45 1019 30.09 848 25.04 5 41.1 68 -0.4 31.3
23:50 1019 30.09 848 25.04 5 41 64 -1.3 29.7
23:55 1019 30.09 848 25.04 5.3 41.5 63 -1.1 30
24:00 1019 30.09 848 25.04 5.6 42.1 60 -1.5 29.3